sensor_id;sensor_type;location;lat;lon;timestamp;P1;durP1;ratioP1;P2;durP2;ratioP2
55292;SDS011;41157;53.560;10.098;2024-03-06T00:00:37;11.80;;;7.67;;
55292;SDS011;41157;53.560;10.098;2024-03-06T00:03:04;13.07;;;7.13;;
55292;SDS011;41157;53.560;10.098;2024-03-06T00:05:33;15.13;;;7.87;;
55292;SDS011;41157;53.560;10.098;2024-03-06T00:08:00;15.90;;;7.40;;
55292;SDS011;41157;53.560;10.098;2024-03-06T00:10:28;11.77;;;7.27;;
55292;SDS011;41157;53.560;10.098;2024-03-06T00:12:55;14.00;;;6.93;;
55292;SDS011;41157;53.560;10.098;2024-03-06T00:15:22;9.77;;;6.40;;
55292;SDS011;41157;53.560;10.098;2024-03-06T00:17:49;12.60;;;6.80;;
55292;SDS011;41157;53.560;10.098;2024-03-06T00:20:16;10.60;;;6.77;;
55292;SDS011;41157;53.560;10.098;2024-03-06T00:22:45;11.13;;;6.13;;
55292;SDS011;41157;53.560;10.098;2024-03-06T00:25:12;12.17;;;6.37;;
55292;SDS011;41157;53.560;10.098;2024-03-06T00:27:39;10.10;;;6.50;;
55292;SDS011;41157;53.560;10.098;2024-03-06T00:30:06;10.83;;;6.37;;
55292;SDS011;41157;53.560;10.098;2024-03-06T00:32:33;8.87;;;5.83;;
55292;SDS011;41157;53.560;10.098;2024-03-06T00:35:00;8.70;;;5.80;;
55292;SDS011;41157;53.560;10.098;2024-03-06T00:37:28;9.90;;;5.70;;
55292;SDS011;41157;53.560;10.098;2024-03-06T00:39:57;10.60;;;5.87;;
55292;SDS011;41157;53.560;10.098;2024-03-06T00:42:24;10.73;;;5.93;;
55292;SDS011;41157;53.560;10.098;2024-03-06T00:44:51;10.27;;;5.67;;
55292;SDS011;41157;53.560;10.098;2024-03-06T00:47:17;11.10;;;5.87;;
55292;SDS011;41157;53.560;10.098;2024-03-06T00:49:46;11.07;;;5.77;;
55292;SDS011;41157;53.560;10.098;2024-03-06T00:52:14;8.13;;;5.13;;
55292;SDS011;41157;53.560;10.098;2024-03-06T00:54:41;11.43;;;5.77;;
55292;SDS011;41157;53.560;10.098;2024-03-06T00:57:10;9.17;;;5.47;;
55292;SDS011;41157;53.560;10.098;2024-03-06T00:59:37;10.43;;;5.10;;
55292;SDS011;41157;53.560;10.098;2024-03-06T01:02:04;10.53;;;5.87;;
55292;SDS011;41157;53.560;10.098;2024-03-06T01:04:31;11.77;;;5.50;;
55292;SDS011;41157;53.560;10.098;2024-03-06T01:06:58;9.13;;;6.03;;
55292;SDS011;41157;53.560;10.098;2024-03-06T01:09:25;9.63;;;5.33;;
55292;SDS011;41157;53.560;10.098;2024-03-06T01:11:52;8.70;;;5.30;;
55292;SDS011;41157;53.560;10.098;2024-03-06T01:14:21;9.70;;;5.70;;
55292;SDS011;41157;53.560;10.098;2024-03-06T01:16:48;10.47;;;5.80;;
55292;SDS011;41157;53.560;10.098;2024-03-06T01:19:15;6.97;;;4.97;;
55292;SDS011;41157;53.560;10.098;2024-03-06T01:21:41;8.37;;;6.03;;
55292;SDS011;41157;53.560;10.098;2024-03-06T01:24:08;11.43;;;6.10;;
55292;SDS011;41157;53.560;10.098;2024-03-06T01:26:35;10.27;;;5.47;;
55292;SDS011;41157;53.560;10.098;2024-03-06T01:29:02;10.33;;;5.60;;
55292;SDS011;41157;53.560;10.098;2024-03-06T01:31:31;9.37;;;5.50;;
55292;SDS011;41157;53.560;10.098;2024-03-06T01:33:58;8.10;;;5.37;;
55292;SDS011;41157;53.560;10.098;2024-03-06T01:36:25;10.60;;;5.57;;
55292;SDS011;41157;53.560;10.098;2024-03-06T01:38:52;7.13;;;5.57;;
55292;SDS011;41157;53.560;10.098;2024-03-06T01:41:19;9.33;;;5.87;;
55292;SDS011;41157;53.560;10.098;2024-03-06T01:43:46;11.30;;;5.27;;
55292;SDS011;41157;53.560;10.098;2024-03-06T01:46:13;7.50;;;5.27;;
55292;SDS011;41157;53.560;10.098;2024-03-06T01:48:41;7.63;;;4.87;;
55292;SDS011;41157;53.560;10.098;2024-03-06T01:51:08;8.53;;;5.70;;
55292;SDS011;41157;53.560;10.098;2024-03-06T01:53:35;9.50;;;5.80;;
55292;SDS011;41157;53.560;10.098;2024-03-06T01:56:03;8.93;;;5.50;;
55292;SDS011;41157;53.560;10.098;2024-03-06T01:58:30;7.10;;;5.17;;
55292;SDS011;41157;53.560;10.098;2024-03-06T02:00:58;9.40;;;5.33;;
55292;SDS011;41157;53.560;10.098;2024-03-06T02:03:26;11.50;;;4.93;;
55292;SDS011;41157;53.560;10.098;2024-03-06T02:05:54;8.13;;;5.30;;
55292;SDS011;41157;53.560;10.098;2024-03-06T02:08:23;8.60;;;5.37;;
55292;SDS011;41157;53.560;10.098;2024-03-06T02:10:50;7.07;;;5.27;;
55292;SDS011;41157;53.560;10.098;2024-03-06T02:13:17;8.40;;;5.00;;
55292;SDS011;41157;53.560;10.098;2024-03-06T02:15:44;8.00;;;4.90;;
55292;SDS011;41157;53.560;10.098;2024-03-06T02:18:11;8.70;;;4.93;;
55292;SDS011;41157;53.560;10.098;2024-03-06T02:20:39;8.93;;;5.17;;
55292;SDS011;41157;53.560;10.098;2024-03-06T02:23:07;7.43;;;5.13;;
55292;SDS011;41157;53.560;10.098;2024-03-06T02:25:34;8.83;;;5.10;;
55292;SDS011;41157;53.560;10.098;2024-03-06T02:28:01;8.03;;;5.10;;
55292;SDS011;41157;53.560;10.098;2024-03-06T02:30:28;6.97;;;4.67;;
55292;SDS011;41157;53.560;10.098;2024-03-06T02:32:55;10.60;;;5.20;;
55292;SDS011;41157;53.560;10.098;2024-03-06T02:35:23;8.33;;;4.73;;
55292;SDS011;41157;53.560;10.098;2024-03-06T02:37:51;10.53;;;5.37;;
55292;SDS011;41157;53.560;10.098;2024-03-06T02:40:18;8.03;;;4.90;;
55292;SDS011;41157;53.560;10.098;2024-03-06T02:42:46;9.60;;;5.27;;
55292;SDS011;41157;53.560;10.098;2024-03-06T02:45:13;9.77;;;5.70;;
55292;SDS011;41157;53.560;10.098;2024-03-06T02:47:40;9.10;;;5.10;;
55292;SDS011;41157;53.560;10.098;2024-03-06T02:50:07;9.53;;;5.20;;
55292;SDS011;41157;53.560;10.098;2024-03-06T02:52:35;9.73;;;5.40;;
55292;SDS011;41157;53.560;10.098;2024-03-06T02:55:03;8.17;;;5.30;;
55292;SDS011;41157;53.560;10.098;2024-03-06T02:57:30;9.33;;;5.07;;
55292;SDS011;41157;53.560;10.098;2024-03-06T02:59:58;8.30;;;4.70;;
55292;SDS011;41157;53.560;10.098;2024-03-06T03:02:25;9.27;;;4.63;;
55292;SDS011;41157;53.560;10.098;2024-03-06T03:04:52;9.80;;;4.53;;
55292;SDS011;41157;53.560;10.098;2024-03-06T03:07:19;9.33;;;4.43;;
55292;SDS011;41157;53.560;10.098;2024-03-06T03:09:46;6.03;;;4.27;;
55292;SDS011;41157;53.560;10.098;2024-03-06T03:12:15;6.07;;;4.03;;
55292;SDS011;41157;53.560;10.098;2024-03-06T03:14:42;6.70;;;4.60;;
55292;SDS011;41157;53.560;10.098;2024-03-06T03:17:09;8.97;;;4.10;;
55292;SDS011;41157;53.560;10.098;2024-03-06T03:19:36;9.27;;;3.93;;
55292;SDS011;41157;53.560;10.098;2024-03-06T03:22:04;9.50;;;4.17;;
55292;SDS011;41157;53.560;10.098;2024-03-06T03:24:33;5.20;;;4.13;;
55292;SDS011;41157;53.560;10.098;2024-03-06T03:27:00;6.23;;;4.40;;
55292;SDS011;41157;53.560;10.098;2024-03-06T03:29:28;5.53;;;4.10;;
55292;SDS011;41157;53.560;10.098;2024-03-06T03:31:55;10.87;;;4.63;;
55292;SDS011;41157;53.560;10.098;2024-03-06T03:34:22;9.03;;;3.67;;
55292;SDS011;41157;53.560;10.098;2024-03-06T03:36:49;7.10;;;3.93;;
55292;SDS011;41157;53.560;10.098;2024-03-06T03:39:16;7.47;;;4.53;;
55292;SDS011;41157;53.560;10.098;2024-03-06T03:41:45;8.90;;;4.13;;
55292;SDS011;41157;53.560;10.098;2024-03-06T03:44:13;7.23;;;4.43;;
55292;SDS011;41157;53.560;10.098;2024-03-06T03:46:41;7.80;;;4.13;;
55292;SDS011;41157;53.560;10.098;2024-03-06T03:49:08;7.53;;;3.80;;
55292;SDS011;41157;53.560;10.098;2024-03-06T03:51:35;12.33;;;4.30;;
55292;SDS011;41157;53.560;10.098;2024-03-06T03:54:02;5.57;;;3.37;;
55292;SDS011;41157;53.560;10.098;2024-03-06T03:56:29;6.53;;;4.60;;
55292;SDS011;41157;53.560;10.098;2024-03-06T03:58:57;9.10;;;3.77;;
55292;SDS011;41157;53.560;10.098;2024-03-06T04:01:24;9.23;;;3.93;;
55292;SDS011;41157;53.560;10.098;2024-03-06T04:03:52;7.13;;;4.30;;
55292;SDS011;41157;53.560;10.098;2024-03-06T04:06:19;7.23;;;3.93;;
55292;SDS011;41157;53.560;10.098;2024-03-06T04:08:46;7.73;;;4.17;;
55292;SDS011;41157;53.560;10.098;2024-03-06T04:11:13;5.77;;;4.03;;
55292;SDS011;41157;53.560;10.098;2024-03-06T04:13:40;6.83;;;4.07;;
55292;SDS011;41157;53.560;10.098;2024-03-06T04:16:07;8.20;;;4.63;;
55292;SDS011;41157;53.560;10.098;2024-03-06T04:18:34;6.73;;;4.37;;
55292;SDS011;41157;53.560;10.098;2024-03-06T04:21:03;6.13;;;4.10;;
55292;SDS011;41157;53.560;10.098;2024-03-06T04:23:31;8.47;;;4.23;;
55292;SDS011;41157;53.560;10.098;2024-03-06T04:25:58;6.00;;;3.90;;
55292;SDS011;41157;53.560;10.098;2024-03-06T04:28:25;4.83;;;3.63;;
55292;SDS011;41157;53.560;10.098;2024-03-06T04:30:52;8.17;;;4.30;;
55292;SDS011;41157;53.560;10.098;2024-03-06T04:33:19;7.30;;;4.00;;
55292;SDS011;41157;53.560;10.098;2024-03-06T04:35:46;9.20;;;4.40;;
55292;SDS011;41157;53.560;10.098;2024-03-06T04:38:14;8.77;;;4.10;;
55292;SDS011;41157;53.560;10.098;2024-03-06T04:40:41;9.47;;;3.97;;
55292;SDS011;41157;53.560;10.098;2024-03-06T04:43:09;5.60;;;3.70;;
55292;SDS011;41157;53.560;10.098;2024-03-06T04:45:37;8.87;;;4.13;;
55292;SDS011;41157;53.560;10.098;2024-03-06T04:48:04;8.70;;;3.87;;
55292;SDS011;41157;53.560;10.098;2024-03-06T04:50:31;5.73;;;4.20;;
55292;SDS011;41157;53.560;10.098;2024-03-06T04:52:58;8.20;;;4.33;;
55292;SDS011;41157;53.560;10.098;2024-03-06T04:55:26;7.27;;;4.57;;
55292;SDS011;41157;53.560;10.098;2024-03-06T04:57:55;6.13;;;4.07;;
55292;SDS011;41157;53.560;10.098;2024-03-06T05:00:22;4.97;;;3.97;;
55292;SDS011;41157;53.560;10.098;2024-03-06T05:02:49;5.30;;;3.80;;
55292;SDS011;41157;53.560;10.098;2024-03-06T05:05:16;9.67;;;4.23;;
55292;SDS011;41157;53.560;10.098;2024-03-06T05:07:43;7.07;;;4.17;;
55292;SDS011;41157;53.560;10.098;2024-03-06T05:10:10;6.03;;;4.13;;
55292;SDS011;41157;53.560;10.098;2024-03-06T05:12:39;13.20;;;6.87;;
55292;SDS011;41157;53.560;10.098;2024-03-06T05:15:06;12.10;;;6.07;;
55292;SDS011;41157;53.560;10.098;2024-03-06T05:17:33;10.73;;;5.27;;
55292;SDS011;41157;53.560;10.098;2024-03-06T05:20:00;6.50;;;4.27;;
55292;SDS011;41157;53.560;10.098;2024-03-06T05:22:28;6.00;;;4.13;;
55292;SDS011;41157;53.560;10.098;2024-03-06T05:24:55;8.53;;;4.60;;
55292;SDS011;41157;53.560;10.098;2024-03-06T05:27:23;9.00;;;4.27;;
55292;SDS011;41157;53.560;10.098;2024-03-06T05:29:51;5.17;;;3.80;;
55292;SDS011;41157;53.560;10.098;2024-03-06T05:32:19;6.07;;;3.83;;
55292;SDS011;41157;53.560;10.098;2024-03-06T05:34:46;10.03;;;4.23;;
55292;SDS011;41157;53.560;10.098;2024-03-06T05:37:13;4.40;;;3.73;;
55292;SDS011;41157;53.560;10.098;2024-03-06T05:39:40;5.60;;;4.27;;
55292;SDS011;41157;53.560;10.098;2024-03-06T05:42:08;6.13;;;3.63;;
55292;SDS011;41157;53.560;10.098;2024-03-06T05:44:35;7.07;;;4.00;;
55292;SDS011;41157;53.560;10.098;2024-03-06T05:47:04;7.00;;;4.43;;
55292;SDS011;41157;53.560;10.098;2024-03-06T05:49:31;6.97;;;4.40;;
55292;SDS011;41157;53.560;10.098;2024-03-06T05:51:59;5.47;;;3.80;;
55292;SDS011;41157;53.560;10.098;2024-03-06T05:54:27;5.77;;;3.97;;
55292;SDS011;41157;53.560;10.098;2024-03-06T05:56:58;6.27;;;4.20;;
55292;SDS011;41157;53.560;10.098;2024-03-06T05:59:25;7.10;;;4.37;;
55292;SDS011;41157;53.560;10.098;2024-03-06T06:01:53;6.70;;;4.30;;
55292;SDS011;41157;53.560;10.098;2024-03-06T06:04:22;9.47;;;4.20;;
55292;SDS011;41157;53.560;10.098;2024-03-06T06:06:49;8.97;;;4.27;;
55292;SDS011;41157;53.560;10.098;2024-03-06T06:09:17;5.30;;;4.20;;
55292;SDS011;41157;53.560;10.098;2024-03-06T06:11:44;8.57;;;4.73;;
55292;SDS011;41157;53.560;10.098;2024-03-06T06:14:12;6.37;;;4.10;;
55292;SDS011;41157;53.560;10.098;2024-03-06T06:16:39;6.43;;;4.60;;
55292;SDS011;41157;53.560;10.098;2024-03-06T06:19:07;9.10;;;4.87;;
55292;SDS011;41157;53.560;10.098;2024-03-06T06:21:36;6.27;;;4.13;;
55292;SDS011;41157;53.560;10.098;2024-03-06T06:24:03;7.13;;;4.43;;
55292;SDS011;41157;53.560;10.098;2024-03-06T06:26:30;6.07;;;4.27;;
55292;SDS011;41157;53.560;10.098;2024-03-06T06:28:57;7.73;;;4.50;;
55292;SDS011;41157;53.560;10.098;2024-03-06T06:31:24;7.60;;;4.33;;
55292;SDS011;41157;53.560;10.098;2024-03-06T06:33:52;9.20;;;4.97;;
55292;SDS011;41157;53.560;10.098;2024-03-06T06:36:19;11.60;;;4.90;;
55292;SDS011;41157;53.560;10.098;2024-03-06T06:38:47;10.43;;;5.33;;
55292;SDS011;41157;53.560;10.098;2024-03-06T06:41:14;18.47;;;5.30;;
55292;SDS011;41157;53.560;10.098;2024-03-06T06:43:41;12.47;;;5.57;;
55292;SDS011;41157;53.560;10.098;2024-03-06T06:46:08;11.50;;;5.27;;
55292;SDS011;41157;53.560;10.098;2024-03-06T06:48:35;10.80;;;5.60;;
55292;SDS011;41157;53.560;10.098;2024-03-06T06:51:02;16.50;;;5.03;;
55292;SDS011;41157;53.560;10.098;2024-03-06T06:53:30;8.33;;;4.73;;
55292;SDS011;41157;53.560;10.098;2024-03-06T06:55:58;11.47;;;5.00;;
55292;SDS011;41157;53.560;10.098;2024-03-06T06:58:25;12.13;;;5.07;;
55292;SDS011;41157;53.560;10.098;2024-03-06T07:00:52;9.80;;;4.67;;
55292;SDS011;41157;53.560;10.098;2024-03-06T07:03:19;7.57;;;5.20;;
55292;SDS011;41157;53.560;10.098;2024-03-06T07:05:48;10.30;;;4.63;;
55292;SDS011;41157;53.560;10.098;2024-03-06T07:08:15;9.93;;;4.87;;
55292;SDS011;41157;53.560;10.098;2024-03-06T07:10:42;9.93;;;5.07;;
55292;SDS011;41157;53.560;10.098;2024-03-06T07:13:11;8.50;;;4.57;;
55292;SDS011;41157;53.560;10.098;2024-03-06T07:15:38;11.70;;;5.20;;
55292;SDS011;41157;53.560;10.098;2024-03-06T07:18:05;8.73;;;4.37;;
55292;SDS011;41157;53.560;10.098;2024-03-06T07:20:32;6.77;;;4.70;;
55292;SDS011;41157;53.560;10.098;2024-03-06T07:22:59;7.47;;;4.50;;
55292;SDS011;41157;53.560;10.098;2024-03-06T07:25:26;7.90;;;4.40;;
55292;SDS011;41157;53.560;10.098;2024-03-06T07:27:53;8.10;;;4.63;;
55292;SDS011;41157;53.560;10.098;2024-03-06T07:30:21;6.40;;;4.23;;
55292;SDS011;41157;53.560;10.098;2024-03-06T07:32:48;8.27;;;4.07;;
55292;SDS011;41157;53.560;10.098;2024-03-06T07:35:15;4.93;;;3.80;;
55292;SDS011;41157;53.560;10.098;2024-03-06T07:37:42;7.17;;;3.97;;
55292;SDS011;41157;53.560;10.098;2024-03-06T07:40:10;6.90;;;4.47;;
55292;SDS011;41157;53.560;10.098;2024-03-06T07:42:38;5.97;;;4.10;;
55292;SDS011;41157;53.560;10.098;2024-03-06T07:45:05;5.27;;;4.33;;
55292;SDS011;41157;53.560;10.098;2024-03-06T07:47:35;8.03;;;4.00;;
55292;SDS011;41157;53.560;10.098;2024-03-06T07:50:03;5.37;;;4.40;;
55292;SDS011;41157;53.560;10.098;2024-03-06T07:52:31;5.57;;;3.67;;
55292;SDS011;41157;53.560;10.098;2024-03-06T07:54:59;5.90;;;3.60;;
55292;SDS011;41157;53.560;10.098;2024-03-06T07:57:26;5.30;;;3.77;;
55292;SDS011;41157;53.560;10.098;2024-03-06T07:59:53;4.67;;;3.60;;
55292;SDS011;41157;53.560;10.098;2024-03-06T08:02:20;8.00;;;3.23;;
55292;SDS011;41157;53.560;10.098;2024-03-06T08:04:49;5.33;;;3.73;;
55292;SDS011;41157;53.560;10.098;2024-03-06T08:07:16;5.93;;;3.50;;
55292;SDS011;41157;53.560;10.098;2024-03-06T08:09:43;4.00;;;3.20;;
55292;SDS011;41157;53.560;10.098;2024-03-06T08:12:10;5.37;;;3.50;;
55292;SDS011;41157;53.560;10.098;2024-03-06T08:14:37;3.40;;;3.10;;
55292;SDS011;41157;53.560;10.098;2024-03-06T08:17:04;4.17;;;3.60;;
55292;SDS011;41157;53.560;10.098;2024-03-06T08:19:30;4.87;;;3.90;;
55292;SDS011;41157;53.560;10.098;2024-03-06T08:21:58;5.97;;;3.70;;
55292;SDS011;41157;53.560;10.098;2024-03-06T08:24:26;7.33;;;3.57;;
55292;SDS011;41157;53.560;10.098;2024-03-06T08:26:53;3.43;;;3.13;;
55292;SDS011;41157;53.560;10.098;2024-03-06T08:29:22;4.28;;;3.38;;
55292;SDS011;41157;53.560;10.098;2024-03-06T08:31:48;6.22;;;3.53;;
55292;SDS011;41157;53.560;10.098;2024-03-06T08:34:15;5.15;;;3.50;;
55292;SDS011;41157;53.560;10.098;2024-03-06T08:36:42;5.88;;;3.35;;
55292;SDS011;41157;53.560;10.098;2024-03-06T08:39:11;3.67;;;2.95;;
55292;SDS011;41157;53.560;10.098;2024-03-06T08:41:41;7.60;;;4.07;;
55292;SDS011;41157;53.560;10.098;2024-03-06T08:44:08;5.85;;;3.72;;
55292;SDS011;41157;53.560;10.098;2024-03-06T08:46:35;4.50;;;3.72;;
55292;SDS011;41157;53.560;10.098;2024-03-06T08:49:02;8.60;;;3.33;;
55292;SDS011;41157;53.560;10.098;2024-03-06T08:51:29;9.05;;;3.50;;
55292;SDS011;41157;53.560;10.098;2024-03-06T08:53:56;4.50;;;3.40;;
55292;SDS011;41157;53.560;10.098;2024-03-06T08:56:25;4.75;;;3.33;;
55292;SDS011;41157;53.560;10.098;2024-03-06T08:58:52;4.90;;;3.35;;
55292;SDS011;41157;53.560;10.098;2024-03-06T09:01:19;3.95;;;3.00;;
55292;SDS011;41157;53.560;10.098;2024-03-06T09:03:50;4.50;;;3.55;;
55292;SDS011;41157;53.560;10.098;2024-03-06T09:06:17;3.78;;;2.97;;
55292;SDS011;41157;53.560;10.098;2024-03-06T09:08:44;4.25;;;2.83;;
55292;SDS011;41157;53.560;10.098;2024-03-06T09:11:12;4.95;;;3.47;;
55292;SDS011;41157;53.560;10.098;2024-03-06T09:13:40;4.05;;;3.10;;
55292;SDS011;41157;53.560;10.098;2024-03-06T09:16:07;3.90;;;3.00;;
55292;SDS011;41157;53.560;10.098;2024-03-06T09:18:34;5.90;;;3.00;;
55292;SDS011;41157;53.560;10.098;2024-03-06T09:21:02;5.50;;;3.60;;
55292;SDS011;41157;53.560;10.098;2024-03-06T09:23:29;5.88;;;3.70;;
55292;SDS011;41157;53.560;10.098;2024-03-06T09:25:57;5.97;;;3.53;;
55292;SDS011;41157;53.560;10.098;2024-03-06T09:28:24;5.68;;;3.70;;
55292;SDS011;41157;53.560;10.098;2024-03-06T09:30:53;4.45;;;3.38;;
55292;SDS011;41157;53.560;10.098;2024-03-06T09:33:20;4.15;;;3.35;;
55292;SDS011;41157;53.560;10.098;2024-03-06T09:35:47;6.55;;;4.15;;
55292;SDS011;41157;53.560;10.098;2024-03-06T09:38:14;4.63;;;3.85;;
55292;SDS011;41157;53.560;10.098;2024-03-06T09:40:41;5.65;;;3.65;;
55292;SDS011;41157;53.560;10.098;2024-03-06T09:43:08;7.10;;;3.92;;
55292;SDS011;41157;53.560;10.098;2024-03-06T09:45:36;4.15;;;3.75;;
55292;SDS011;41157;53.560;10.098;2024-03-06T09:48:05;5.63;;;3.85;;
55292;SDS011;41157;53.560;10.098;2024-03-06T09:50:32;9.35;;;4.40;;
55292;SDS011;41157;53.560;10.098;2024-03-06T09:53:02;8.25;;;4.30;;
55292;SDS011;41157;53.560;10.098;2024-03-06T09:55:31;5.65;;;4.13;;
55292;SDS011;41157;53.560;10.098;2024-03-06T09:57:58;6.32;;;4.40;;
55292;SDS011;41157;53.560;10.098;2024-03-06T10:00:27;7.10;;;4.80;;
55292;SDS011;41157;53.560;10.098;2024-03-06T10:02:57;11.38;;;4.32;;
55292;SDS011;41157;53.560;10.098;2024-03-06T10:05:27;5.95;;;4.50;;
55292;SDS011;41157;53.560;10.098;2024-03-06T10:07:55;10.73;;;4.65;;
55292;SDS011;41157;53.560;10.098;2024-03-06T10:10:21;5.63;;;4.53;;
55292;SDS011;41157;53.560;10.098;2024-03-06T10:12:49;4.72;;;4.25;;
55292;SDS011;41157;53.560;10.098;2024-03-06T10:15:16;6.47;;;4.47;;
55292;SDS011;41157;53.560;10.098;2024-03-06T10:17:43;12.68;;;4.95;;
55292;SDS011;41157;53.560;10.098;2024-03-06T10:20:18;8.88;;;4.72;;
55292;SDS011;41157;53.560;10.098;2024-03-06T10:22:47;11.95;;;4.63;;
55292;SDS011;41157;53.560;10.098;2024-03-06T10:25:15;5.75;;;4.72;;
55292;SDS011;41157;53.560;10.098;2024-03-06T10:27:44;6.28;;;4.65;;
55292;SDS011;41157;53.560;10.098;2024-03-06T10:30:11;5.10;;;4.43;;
55292;SDS011;41157;53.560;10.098;2024-03-06T10:32:39;7.22;;;4.63;;
55292;SDS011;41157;53.560;10.098;2024-03-06T10:35:08;6.60;;;5.05;;
55292;SDS011;41157;53.560;10.098;2024-03-06T10:37:44;7.10;;;4.68;;
55292;SDS011;41157;53.560;10.098;2024-03-06T10:40:13;6.45;;;4.90;;
55292;SDS011;41157;53.560;10.098;2024-03-06T10:42:41;7.18;;;4.70;;
55292;SDS011;41157;53.560;10.098;2024-03-06T10:45:08;10.40;;;4.75;;
55292;SDS011;41157;53.560;10.098;2024-03-06T10:47:37;7.28;;;5.00;;
55292;SDS011;41157;53.560;10.098;2024-03-06T10:50:06;9.13;;;5.60;;
55292;SDS011;41157;53.560;10.098;2024-03-06T10:52:35;7.35;;;5.25;;
55292;SDS011;41157;53.560;10.098;2024-03-06T10:55:03;8.27;;;5.22;;
55292;SDS011;41157;53.560;10.098;2024-03-06T10:57:32;8.45;;;5.50;;
55292;SDS011;41157;53.560;10.098;2024-03-06T11:00:00;7.55;;;5.20;;
55292;SDS011;41157;53.560;10.098;2024-03-06T11:02:27;7.80;;;5.28;;
55292;SDS011;41157;53.560;10.098;2024-03-06T11:04:54;6.32;;;4.72;;
55292;SDS011;41157;53.560;10.098;2024-03-06T11:07:21;8.63;;;5.28;;
55292;SDS011;41157;53.560;10.098;2024-03-06T11:09:49;7.35;;;5.47;;
55292;SDS011;41157;53.560;10.098;2024-03-06T11:14:59;6.57;;;4.93;;
55292;SDS011;41157;53.560;10.098;2024-03-06T11:17:28;10.10;;;5.65;;
55292;SDS011;41157;53.560;10.098;2024-03-06T11:20:08;6.60;;;5.35;;
55292;SDS011;41157;53.560;10.098;2024-03-06T11:28:06;9.27;;;5.43;;
55292;SDS011;41157;53.560;10.098;2024-03-06T11:30:45;8.88;;;6.53;;
55292;SDS011;41157;53.560;10.098;2024-03-06T11:33:12;6.75;;;4.72;;
55292;SDS011;41157;53.560;10.098;2024-03-06T11:35:41;6.22;;;4.75;;
55292;SDS011;41157;53.560;10.098;2024-03-06T11:38:16;11.85;;;4.60;;
55292;SDS011;41157;53.560;10.098;2024-03-06T11:40:43;8.98;;;6.28;;
55292;SDS011;41157;53.560;10.098;2024-03-06T11:45:53;8.75;;;5.38;;
55292;SDS011;41157;53.560;10.098;2024-03-06T11:48:20;7.32;;;5.20;;
55292;SDS011;41157;53.560;10.098;2024-03-06T11:50:47;4.30;;;3.65;;
55292;SDS011;41157;53.560;10.098;2024-03-06T11:53:15;5.32;;;4.40;;
55292;SDS011;41157;53.560;10.098;2024-03-06T11:55:43;10.23;;;4.55;;
55292;SDS011;41157;53.560;10.098;2024-03-06T11:58:10;5.78;;;4.32;;
55292;SDS011;41157;53.560;10.098;2024-03-06T12:00:37;6.25;;;4.20;;
55292;SDS011;41157;53.560;10.098;2024-03-06T12:03:05;6.65;;;4.00;;
55292;SDS011;41157;53.560;10.098;2024-03-06T12:05:32;6.10;;;4.35;;
55292;SDS011;41157;53.560;10.098;2024-03-06T12:07:59;5.22;;;4.63;;
55292;SDS011;41157;53.560;10.098;2024-03-06T12:10:26;6.25;;;4.60;;
55292;SDS011;41157;53.560;10.098;2024-03-06T12:12:53;9.57;;;5.38;;
55292;SDS011;41157;53.560;10.098;2024-03-06T12:15:20;5.50;;;4.95;;
55292;SDS011;41157;53.560;10.098;2024-03-06T12:17:49;5.30;;;4.55;;
55292;SDS011;41157;53.560;10.098;2024-03-06T12:20:18;5.00;;;4.50;;
55292;SDS011;41157;53.560;10.098;2024-03-06T12:22:45;5.95;;;4.28;;
55292;SDS011;41157;53.560;10.098;2024-03-06T12:25:17;6.63;;;4.68;;
55292;SDS011;41157;53.560;10.098;2024-03-06T12:27:45;7.63;;;4.55;;
55292;SDS011;41157;53.560;10.098;2024-03-06T12:30:12;5.80;;;4.32;;
55292;SDS011;41157;53.560;10.098;2024-03-06T12:32:40;7.82;;;4.60;;
55292;SDS011;41157;53.560;10.098;2024-03-06T12:35:08;5.78;;;4.20;;
55292;SDS011;41157;53.560;10.098;2024-03-06T12:37:36;6.20;;;4.85;;
55292;SDS011;41157;53.560;10.098;2024-03-06T12:40:03;4.75;;;4.03;;
55292;SDS011;41157;53.560;10.098;2024-03-06T12:42:30;6.03;;;3.97;;
55292;SDS011;41157;53.560;10.098;2024-03-06T12:44:57;6.95;;;4.53;;
55292;SDS011;41157;53.560;10.098;2024-03-06T12:47:24;9.68;;;4.70;;
55292;SDS011;41157;53.560;10.098;2024-03-06T12:49:51;7.93;;;4.43;;
55292;SDS011;41157;53.560;10.098;2024-03-06T12:52:18;7.65;;;4.32;;
55292;SDS011;41157;53.560;10.098;2024-03-06T12:54:47;10.65;;;4.90;;
55292;SDS011;41157;53.560;10.098;2024-03-06T12:57:14;8.75;;;4.53;;
55292;SDS011;41157;53.560;10.098;2024-03-06T12:59:42;6.68;;;4.78;;
55292;SDS011;41157;53.560;10.098;2024-03-06T13:02:09;6.65;;;4.65;;
55292;SDS011;41157;53.560;10.098;2024-03-06T13:04:36;7.10;;;5.00;;
55292;SDS011;41157;53.560;10.098;2024-03-06T13:07:03;8.25;;;5.18;;
55292;SDS011;41157;53.560;10.098;2024-03-06T13:09:30;5.93;;;4.43;;
55292;SDS011;41157;53.560;10.098;2024-03-06T13:11:59;8.02;;;4.97;;
55292;SDS011;41157;53.560;10.098;2024-03-06T13:14:26;6.53;;;4.65;;
55292;SDS011;41157;53.560;10.098;2024-03-06T13:16:53;8.32;;;4.45;;
55292;SDS011;41157;53.560;10.098;2024-03-06T13:19:20;7.77;;;5.20;;
55292;SDS011;41157;53.560;10.098;2024-03-06T13:21:47;5.97;;;4.53;;
55292;SDS011;41157;53.560;10.098;2024-03-06T13:24:14;6.77;;;4.33;;
55292;SDS011;41157;53.560;10.098;2024-03-06T13:26:41;11.23;;;5.13;;
55292;SDS011;41157;53.560;10.098;2024-03-06T13:29:09;7.93;;;5.53;;
55292;SDS011;41157;53.560;10.098;2024-03-06T13:31:36;6.43;;;4.57;;
55292;SDS011;41157;53.560;10.098;2024-03-06T13:34:03;7.93;;;4.90;;
55292;SDS011;41157;53.560;10.098;2024-03-06T13:36:31;9.27;;;5.27;;
55292;SDS011;41157;53.560;10.098;2024-03-06T13:38:58;8.00;;;5.27;;
55292;SDS011;41157;53.560;10.098;2024-03-06T13:41:25;9.70;;;5.03;;
55292;SDS011;41157;53.560;10.098;2024-03-06T13:43:52;10.63;;;5.07;;
55292;SDS011;41157;53.560;10.098;2024-03-06T13:46:20;7.00;;;4.57;;
55292;SDS011;41157;53.560;10.098;2024-03-06T13:48:47;7.80;;;4.40;;
55292;SDS011;41157;53.560;10.098;2024-03-06T13:51:14;7.80;;;4.83;;
55292;SDS011;41157;53.560;10.098;2024-03-06T13:53:41;6.47;;;4.20;;
55292;SDS011;41157;53.560;10.098;2024-03-06T13:56:08;8.37;;;4.90;;
55292;SDS011;41157;53.560;10.098;2024-03-06T13:58:35;7.73;;;4.47;;
55292;SDS011;41157;53.560;10.098;2024-03-06T14:01:03;9.30;;;5.03;;
55292;SDS011;41157;53.560;10.098;2024-03-06T14:03:32;6.70;;;4.87;;
55292;SDS011;41157;53.560;10.098;2024-03-06T14:05:59;8.97;;;5.07;;
55292;SDS011;41157;53.560;10.098;2024-03-06T14:08:26;9.17;;;5.30;;
55292;SDS011;41157;53.560;10.098;2024-03-06T14:10:53;7.07;;;4.37;;
55292;SDS011;41157;53.560;10.098;2024-03-06T14:13:20;8.37;;;4.33;;
55292;SDS011;41157;53.560;10.098;2024-03-06T14:15:47;5.60;;;4.33;;
55292;SDS011;41157;53.560;10.098;2024-03-06T14:18:14;6.63;;;4.23;;
55292;SDS011;41157;53.560;10.098;2024-03-06T14:20:43;9.77;;;5.03;;
55292;SDS011;41157;53.560;10.098;2024-03-06T14:23:10;6.93;;;4.87;;
55292;SDS011;41157;53.560;10.098;2024-03-06T14:25:38;8.47;;;5.17;;
55292;SDS011;41157;53.560;10.098;2024-03-06T14:28:05;5.60;;;4.13;;
55292;SDS011;41157;53.560;10.098;2024-03-06T14:30:33;8.23;;;4.57;;
55292;SDS011;41157;53.560;10.098;2024-03-06T14:33:00;6.77;;;4.50;;
55292;SDS011;41157;53.560;10.098;2024-03-06T14:35:28;9.40;;;5.03;;
55292;SDS011;41157;53.560;10.098;2024-03-06T14:37:56;11.30;;;4.97;;
55292;SDS011;41157;53.560;10.098;2024-03-06T14:40:25;6.53;;;4.20;;
55292;SDS011;41157;53.560;10.098;2024-03-06T14:42:52;7.03;;;4.80;;
55292;SDS011;41157;53.560;10.098;2024-03-06T14:45:19;8.10;;;5.00;;